Time,TemperatureF,DewpointF,PressureIn,WindDirection,WindDirectionDegrees,WindSpeedMPH,WindSpeedGustMPH,Humidity,HourlyPrecipIn,Conditions,Clouds,dailyrainin,SoftwareType,DateUTC
2013-05-13 00:00:00,42.0,-99.9,30.15,NNE,20,10.0,-999.0,-999,-99.99,,,-99.99,,2013-05-13 04:00:00,
2013-05-13 00:23:00,42.0,-99.9,30.15,NNE,20,10.0,-999.0,-999,-99.99,,,-99.99,,2013-05-13 04:23:00,
2013-05-13 00:33:00,42.0,-99.9,30.15,NNE,20,10.0,-999.0,-999,-99.99,,,-99.99,,2013-05-13 04:33:00,
2013-05-13 00:42:00,42.0,-99.9,30.15,NNE,20,10.0,-999.0,-999,-99.99,,,-99.99,,2013-05-13 04:42:00,
2013-05-13 00:53:00,42.0,-99.9,30.15,NNE,20,10.0,-999.0,-999,-99.99,,,-99.99,,2013-05-13 04:53:00,
2013-05-13 01:00:00,39.0,-99.9,30.15,NNW,330,5.0,-999.0,-999,-99.99,,,-99.99,,2013-05-13 05:00:00,
2013-05-13 01:22:00,39.0,-99.9,30.15,NNW,330,5.0,-999.0,-999,-99.99,,,-99.99,,2013-05-13 05:22:00,
2013-05-13 01:32:00,39.0,-99.9,30.15,NNW,330,5.0,-999.0,-999,-99.99,,,-99.99,,2013-05-13 05:32:00,
2013-05-13 01:42:00,39.0,-99.9,30.15,NNW,330,5.0,-999.0,-999,-99.99,,,-99.99,,2013-05-13 05:42:00,
2013-05-13 01:52:00,39.0,-99.9,30.15,NNW,330,5.0,-999.0,-999,-99.99,,,-99.99,,2013-05-13 05:52:00,
2013-05-13 02:00:00,37.0,-99.9,30.14,WNW,290,6.0,-999.0,-999,-99.99,,,-99.99,,2013-05-13 06:00:00,
2013-05-13 02:22:00,37.0,-99.9,30.14,WNW,290,6.0,-999.0,-999,-99.99,,,-99.99,,2013-05-13 06:22:00,
2013-05-13 02:32:00,37.0,-99.9,30.14,WNW,290,6.0,-999.0,-999,-99.99,,,-99.99,,2013-05-13 06:32:00,
2013-05-13 02:42:00,37.0,-99.9,30.14,WNW,290,6.0,-999.0,-999,-99.99,,,-99.99,,2013-05-13 06:42:00,
2013-05-13 02:52:00,37.0,-99.9,30.14,WNW,290,6.0,-999.0,-999,-99.99,,,-99.99,,2013-05-13 06:52:00,
2013-05-13 03:00:00,35.0,-99.9,30.13,West,280,7.0,-999.0,-999,-99.99,,,-99.99,,2013-05-13 07:00:00,
2013-05-13 03:22:00,35.0,-99.9,30.13,West,280,7.0,-999.0,-999,-99.99,,,-99.99,,2013-05-13 07:22:00,
2013-05-13 03:32:00,35.0,-99.9,30.13,West,280,7.0,-999.0,-999,-99.99,,,-99.99,,2013-05-13 07:32:00,
2013-05-13 03:42:00,35.0,-99.9,30.13,West,280,7.0,-999.0,-999,-99.99,,,-99.99,,2013-05-13 07:42:00,
2013-05-13 03:52:00,35.0,-99.9,30.13,West,280,7.0,-999.0,-999,-99.99,,,-99.99,,2013-05-13 07:52:00,
2013-05-13 04:00:00,36.0,-99.9,30.11,West,270,9.0,-999.0,-999,-99.99,,,-99.99,,2013-05-13 08:00:00,
2013-05-13 04:22:00,36.0,-99.9,30.11,West,270,9.0,-999.0,-999,-99.99,,,-99.99,,2013-05-13 08:22:00,
2013-05-13 04:32:00,36.0,-99.9,30.11,West,270,9.0,-999.0,-999,-99.99,,,-99.99,,2013-05-13 08:32:00,
2013-05-13 04:42:00,36.0,-99.9,30.11,West,270,9.0,-999.0,-999,-99.99,,,-99.99,,2013-05-13 08:42:00,
2013-05-13 04:52:00,36.0,-99.9,30.11,West,270,9.0,-999.0,-999,-99.99,,,-99.99,,2013-05-13 08:52:00,
2013-05-13 05:00:00,37.0,-99.9,30.11,West,260,11.0,-999.0,-999,-99.99,,,-99.99,,2013-05-13 09:00:00,
2013-05-13 05:33:00,37.0,-99.9,30.11,West,260,11.0,-999.0,-999,-99.99,,,-99.99,,2013-05-13 09:33:00,
2013-05-13 05:42:00,37.0,-99.9,30.11,West,260,11.0,-999.0,-999,-99.99,,,-99.99,,2013-05-13 09:42:00,
2013-05-13 05:52:00,37.0,-99.9,30.11,West,260,11.0,-999.0,-999,-99.99,,,-99.99,,2013-05-13 09:52:00,
2013-05-13 06:00:00,37.0,-99.9,30.11,West,260,13.0,-999.0,-999,-99.99,,,-99.99,,2013-05-13 10:00:00,
2013-05-13 06:33:00,37.0,-99.9,30.11,West,260,13.0,-999.0,-999,-99.99,,,-99.99,,2013-05-13 10:33:00,
2013-05-13 06:43:00,37.0,-99.9,30.11,West,260,13.0,-999.0,-999,-99.99,,,-99.99,,2013-05-13 10:43:00,
2013-05-13 06:53:00,37.0,-99.9,30.11,West,260,13.0,-999.0,-999,-99.99,,,-99.99,,2013-05-13 10:53:00,
2013-05-13 11:00:00,36.0,-99.9,30.11,NW,310,7.0,-999.0,-999,-99.99,,,-99.99,,2013-05-13 15:00:00,
2013-05-13 11:22:00,36.0,-99.9,30.11,NW,310,7.0,-999.0,-999,-99.99,,,-99.99,,2013-05-13 15:22:00,
2013-05-13 11:32:00,36.0,-99.9,30.11,NW,310,7.0,-999.0,-999,-99.99,,,-99.99,,2013-05-13 15:32:00,
2013-05-13 11:42:00,36.0,-99.9,30.11,NW,310,7.0,-999.0,-999,-99.99,,,-99.99,,2013-05-13 15:42:00,
2013-05-13 11:53:00,36.0,-99.9,30.11,NW,310,7.0,-999.0,-999,-99.99,,,-99.99,,2013-05-13 15:53:00,
2013-05-13 12:00:00,37.0,-99.9,30.11,SW,220,10.0,-999.0,-999,-99.99,,,-99.99,,2013-05-13 16:00:00,
2013-05-13 12:22:00,37.0,-99.9,30.11,SW,220,10.0,-999.0,-999,-99.99,,,-99.99,,2013-05-13 16:22:00,
2013-05-13 12:34:00,37.0,-99.9,30.11,SW,220,10.0,-999.0,-999,-99.99,,,-99.99,,2013-05-13 16:34:00,
2013-05-13 12:43:00,37.0,-99.9,30.11,SW,220,10.0,-999.0,-999,-99.99,,,-99.99,,2013-05-13 16:43:00,
2013-05-13 12:53:00,37.0,-99.9,30.11,SW,220,10.0,-999.0,-999,-99.99,,,-99.99,,2013-05-13 16:53:00,
2013-05-13 13:00:00,37.0,-99.9,30.10,SW,230,10.0,-999.0,-999,-99.99,,,-99.99,,2013-05-13 17:00:00,
2013-05-13 13:22:00,37.0,-99.9,30.10,SW,230,10.0,-999.0,-999,-99.99,,,-99.99,,2013-05-13 17:22:00,
2013-05-13 13:32:00,37.0,-99.9,30.10,SW,230,10.0,-999.0,-999,-99.99,,,-99.99,,2013-05-13 17:32:00,
2013-05-13 13:42:00,37.0,-99.9,30.10,SW,230,10.0,-999.0,-999,-99.99,,,-99.99,,2013-05-13 17:42:00,
2013-05-13 13:54:00,37.0,-99.9,30.10,SW,230,10.0,-999.0,-999,-99.99,,,-99.99,,2013-05-13 17:54:00,
2013-05-13 14:00:00,38.0,-99.9,30.07,WNW,290,13.0,-999.0,-999,-99.99,,,-99.99,,2013-05-13 18:00:00,
2013-05-13 14:23:00,38.0,-99.9,30.07,WNW,290,13.0,-999.0,-999,-99.99,,,-99.99,,2013-05-13 18:23:00,
2013-05-13 14:32:00,38.0,-99.9,30.07,WNW,290,13.0,-999.0,-999,-99.99,,,-99.99,,2013-05-13 18:32:00,
2013-05-13 14:43:00,38.0,-99.9,30.07,WNW,290,13.0,-999.0,-999,-99.99,,,-99.99,,2013-05-13 18:43:00,
2013-05-13 14:52:00,38.0,-99.9,30.07,WNW,290,13.0,-999.0,-999,-99.99,,,-99.99,,2013-05-13 18:52:00,